Time,TemperatureF,DewpointF,PressureIn,WindDirection,WindDirectionDegrees,WindSpeedMPH,WindSpeedGustMPH,Humidity,HourlyPrecipIn,Conditions,Clouds,dailyrainin,SoftwareType,DateUTC
2013-03-01 00:01:00,30.2,30.0,29.12,North,360,0.0,2.0,99,-99.99,,,-99.99,WSDL version 423,2013-03-01 05:01:00,
2013-03-01 00:06:00,30.2,30.0,29.12,North,8,0.0,1.6,99,-99.99,,,-99.99,WSDL version 423,2013-03-01 05:06:00,
2013-03-01 00:11:00,30.2,30.0,29.12,NNW,338,0.0,1.6,99,-99.99,,,-99.99,WSDL version 423,2013-03-01 05:11:00,
2013-03-01 00:16:00,30.2,30.0,29.12,North,3,0.0,1.6,99,-99.99,,,-99.99,WSDL version 423,2013-03-01 05:16:00,
2013-03-01 00:21:00,30.2,30.0,29.12,North,358,1.6,2.7,99,-99.99,,,-99.99,WSDL version 423,2013-03-01 05:21:00,
2013-03-01 00:26:00,30.2,30.0,29.12,North,3,0.4,3.1,100,-99.99,,,-99.99,WSDL version 423,2013-03-01 05:26:00,
2013-03-01 00:31:00,30.2,30.2,29.12,North,10,1.8,3.1,100,-99.99,,,-99.99,WSDL version 423,2013-03-01 05:31:00,
2013-03-01 00:36:00,30.2,30.2,29.12,North,349,0.8,2.9,100,-99.99,,,-99.99,WSDL version 423,2013-03-01 05:36:00,
2013-03-01 00:41:00,30.2,30.2,29.12,North,358,0.7,2.9,100,-99.99,,,-99.99,WSDL version 423,2013-03-01 05:41:00,
2013-03-01 00:46:00,30.2,30.2,29.12,North,349,0.0,2.9,100,-99.99,,,-99.99,WSDL version 423,2013-03-01 05:46:00,
2013-03-01 00:51:00,30.2,30.2,29.12,North,349,0.0,2.2,100,-99.99,,,-99.99,WSDL version 423,2013-03-01 05:51:00,
2013-03-01 00:56:00,30.2,30.2,29.12,NNE,13,0.0,2.2,100,-99.99,,,-99.99,WSDL version 423,2013-03-01 05:56:00,
2013-03-01 01:01:00,30.2,30.1,29.12,North,6,0.3,1.6,99,-99.99,,,-99.99,WSDL version 423,2013-03-01 06:01:00,
2013-03-01 01:06:00,30.2,30.0,29.12,North,353,0.0,1.6,99,-99.99,,,-99.99,WSDL version 423,2013-03-01 06:06:00,
2013-03-01 01:11:00,30.2,30.0,29.12,NNE,19,0.1,1.3,99,-99.99,,,-99.99,WSDL version 423,2013-03-01 06:11:00,
2013-03-01 01:16:00,30.2,30.0,29.12,NNE,33,0.0,1.3,99,-99.99,,,-99.99,WSDL version 423,2013-03-01 06:16:00,
2013-03-01 01:21:00,30.0,29.8,29.12,East,101,0.0,0.0,99,-99.99,,,-99.99,WSDL version 423,2013-03-01 06:21:00,
2013-03-01 01:26:00,30.0,29.8,29.12,NE,53,0.0,0.0,99,-99.99,,,-99.99,WSDL version 423,2013-03-01 06:26:00,
2013-03-01 01:31:00,30.0,29.7,29.12,North,360,0.0,0.0,99,-99.99,,,-99.99,WSDL version 423,2013-03-01 06:31:00,
2013-03-01 01:36:00,29.8,29.6,29.12,North,357,0.0,0.0,99,-99.99,,,-99.99,WSDL version 423,2013-03-01 06:36:00,
2013-03-01 01:41:00,29.8,29.6,29.12,NE,45,0.0,0.0,99,-99.99,,,-99.99,WSDL version 423,2013-03-01 06:41:00,
2013-03-01 01:46:00,29.8,29.5,29.12,NE,45,0.0,0.0,99,-99.99,,,-99.99,WSDL version 423,2013-03-01 06:46:00,
2013-03-01 01:51:00,29.7,29.4,29.12,ENE,68,0.0,0.0,99,-99.99,,,-99.99,WSDL version 423,2013-03-01 06:51:00,
2013-03-01 01:56:00,29.7,29.4,29.12,ESE,113,0.0,0.0,99,-99.99,,,-99.99,WSDL version 423,2013-03-01 06:56:00,
2013-03-01 02:01:00,29.7,29.4,29.12,ESE,113,0.0,0.0,99,-99.99,,,-99.99,WSDL version 423,2013-03-01 07:01:00,
2013-03-01 02:06:00,29.6,29.6,29.12,ESE,113,0.0,0.0,100,-99.99,,,-99.99,WSDL version 423,2013-03-01 07:06:00,
2013-03-01 02:11:00,29.5,29.5,29.12,ESE,113,0.0,0.0,100,-99.99,,,-99.99,WSDL version 423,2013-03-01 07:11:00,
2013-03-01 02:16:00,29.5,29.4,29.12,ENE,62,0.0,0.0,99,-99.99,,,-99.99,WSDL version 423,2013-03-01 07:16:00,
2013-03-01 02:21:00,29.4,29.2,29.12,North,350,0.0,0.0,99,-99.99,,,-99.99,WSDL version 423,2013-03-01 07:21:00,
2013-03-01 02:26:00,29.3,29.1,29.12,NE,50,0.0,0.0,99,-99.99,,,-99.99,WSDL version 423,2013-03-01 07:26:00,
2013-03-01 02:31:00,29.4,29.3,29.12,East,90,0.0,0.0,100,-99.99,,,-99.99,WSDL version 423,2013-03-01 07:31:00,
2013-03-01 02:36:00,29.3,29.3,29.12,East,90,0.0,0.0,100,-99.99,,,-99.99,WSDL version 423,2013-03-01 07:36:00,
2013-03-01 02:41:00,29.0,28.8,29.12,East,90,0.0,0.0,99,-99.99,,,-99.99,WSDL version 423,2013-03-01 07:41:00,
2013-03-01 02:46:00,28.9,28.7,29.12,East,90,0.0,0.0,100,-99.99,,,-99.99,WSDL version 423,2013-03-01 07:46:00,
2013-03-01 02:51:00,28.9,28.9,29.12,East,90,0.0,0.0,100,-99.99,,,-99.99,WSDL version 423,2013-03-01 07:51:00,
2013-03-01 02:56:00,28.8,28.8,29.12,East,90,0.0,0.0,100,-99.99,,,-99.99,WSDL version 423,2013-03-01 07:56:00,
2013-03-01 03:01:00,28.9,28.9,29.12,East,90,0.0,0.0,100,-99.99,,,-99.99,WSDL version 423,2013-03-01 08:01:00,
2013-03-01 03:06:00,28.8,28.8,29.12,East,90,0.0,0.0,100,-99.99,,,-99.99,WSDL version 423,2013-03-01 08:06:00,
2013-03-01 03:11:00,28.8,28.8,29.12,East,90,0.0,0.0,100,-99.99,,,-99.99,WSDL version 423,2013-03-01 08:11:00,
2013-03-01 03:21:00,28.8,28.8,29.12,East,90,0.0,0.0,100,-99.99,,,-99.99,WSDL version 423,2013-03-01 08:21:00,
2013-03-01 03:26:00,28.8,28.8,29.12,East,83,0.0,0.0,100,-99.99,,,-99.99,WSDL version 423,2013-03-01 08:26:00,
2013-03-01 03:31:00,28.6,28.6,29.12,NNE,23,0.0,0.0,100,-99.99,,,-99.99,WSDL version 423,2013-03-01 08:31:00,
2013-03-01 03:36:00,28.5,28.5,29.12,NNE,23,0.0,0.0,100,-99.99,,,-99.99,WSDL version 423,2013-03-01 08:36:00,
2013-03-01 03:46:00,28.3,28.3,29.12,NNE,23,0.0,0.0,100,-99.99,,,-99.99,WSDL version 423,2013-03-01 08:46:00,
2013-03-01 03:51:00,28.2,28.2,29.12,North,360,0.0,0.0,100,-99.99,,,-99.99,WSDL version 423,2013-03-01 08:51:00,
2013-03-01 03:56:00,28.2,28.2,29.12,North,360,0.0,0.0,100,-99.99,,,-99.99,WSDL version 423,2013-03-01 08:56:00,
2013-03-01 04:01:00,28.2,28.2,29.12,North,360,0.0,0.0,100,-99.99,,,-99.99,WSDL version 423,2013-03-01 09:01:00,
2013-03-01 04:06:00,28.2,28.2,29.12,North,360,0.0,0.0,100,-99.99,,,-99.99,WSDL version 423,2013-03-01 09:06:00,
2013-03-01 04:16:00,28.4,28.4,29.12,North,360,0.0,0.0,100,-99.99,,,-99.99,WSDL version 423,2013-03-01 09:16:00,
2013-03-01 04:21:00,28.4,28.4,29.12,North,360,0.0,0.0,100,-99.99,,,-99.99,WSDL version 423,2013-03-01 09:21:00,
2013-03-01 04:31:00,28.4,28.4,29.12,North,360,0.0,0.0,100,-99.99,,,-99.99,WSDL version 423,2013-03-01 09:31:00,
2013-03-01 04:36:00,28.4,28.4,29.12,North,360,0.0,0.0,100,-99.99,,,-99.99,WSDL version 423,2013-03-01 09:36:00,
2013-03-01 04:41:00,28.4,28.4,29.12,North,360,0.0,0.0,100,-99.99,,,-99.99,WSDL version 423,2013-03-01 09:41:00,
2013-03-01 04:46:00,28.4,28.4,29.12,North,360,0.0,0.0,100,-99.99,,,-99.99,WSDL version 423,2013-03-01 09:46:00,
2013-03-01 04:56:00,28.5,28.5,29.12,North,360,0.0,0.0,100,-99.99,,,-99.99,WSDL version 423,2013-03-01 09:56:00,
2013-03-01 05:01:00,28.5,28.5,29.12,North,360,0.0,0.0,100,-99.99,,,-99.99,WSDL version 423,2013-03-01 10:01:00,
2013-03-01 05:06:00,28.4,28.4,29.12,North,360,0.0,0.0,100,-99.99,,,-99.99,WSDL version 423,2013-03-01 10:06:00,
2013-03-01 05:11:00,28.5,28.5,29.12,NE,53,0.0,0.0,100,-99.99,,,-99.99,WSDL version 423,2013-03-01 10:11:00,
2013-03-01 05:16:00,28.4,28.4,29.12,NE,45,0.0,0.0,100,-99.99,,,-99.99,WSDL version 423,2013-03-01 10:16:00,
2013-03-01 05:26:00,28.6,28.6,29.12,North,6,0.0,0.0,100,-99.99,,,-99.99,WSDL version 423,2013-03-01 10:26:00,
2013-03-01 05:31:00,28.5,28.5,29.12,North,360,0.0,0.0,100,-99.99,,,-99.99,WSDL version 423,2013-03-01 10:31:00,
2013-03-01 05:36:00,28.4,28.4,29.12,North,360,0.0,0.0,100,-99.99,,,-99.99,WSDL version 423,2013-03-01 10:36:00,
2013-03-01 05:41:00,28.5,28.5,29.12,SE,135,0.0,0.0,100,-99.99,,,-99.99,WSDL version 423,2013-03-01 10:41:00,
2013-03-01 05:46:00,28.6,28.6,29.12,SE,135,0.0,0.0,100,-99.99,,,-99.99,WSDL version 423,2013-03-01 10:46:00,
2013-03-01 05:51:00,28.6,28.6,29.12,ESE,118,0.0,0.0,100,-99.99,,,-99.99,WSDL version 423,2013-03-01 10:51:00,
2013-03-01 05:56:00,28.6,28.6,29.12,ENE,65,0.0,0.0,100,-99.99,,,-99.99,WSDL version 423,2013-03-01 10:56:00,
2013-03-01 06:01:00,28.6,28.6,29.12,ENE,68,0.0,0.0,100,-99.99,,,-99.99,WSDL version 423,2013-03-01 11:01:00,
2013-03-01 06:06:00,28.6,28.6,29.12,East,90,0.0,0.0,100,-99.99,,,-99.99,WSDL version 423,2013-03-01 11:06:00,
2013-03-01 06:11:00,28.6,28.6,29.12,East,90,0.0,0.0,100,-99.99,,,-99.99,WSDL version 423,2013-03-01 11:11:00,
2013-03-01 06:16:00,28.6,28.6,29.12,ESE,113,0.0,0.0,100,-99.99,,,-99.99,WSDL version 423,2013-03-01 11:16:00,
2013-03-01 06:21:00,28.6,28.6,29.12,NNE,25,0.3,2.5,100,-99.99,,,-99.99,WSDL version 423,2013-03-01 11:21:00,
2013-03-01 06:26:00,28.6,28.6,29.12,North,5,0.0,2.5,100,-99.99,,,-99.99,WSDL version 423,2013-03-01 11:26:00,
2013-03-01 06:31:00,28.6,28.6,29.12,NNW,348,0.0,0.0,100,-99.99,,,-99.99,WSDL version 423,2013-03-01 11:31:00,
2013-03-01 06:36:00,28.6,28.6,29.12,West,273,0.0,0.0,100,-99.99,,,-99.99,WSDL version 423,2013-03-01 11:36:00,
2013-03-01 06:41:00,28.6,28.6,29.15,North,354,0.0,0.0,100,-99.99,,,-99.99,WSDL version 423,2013-03-01 11:41:00,
2013-03-01 06:46:00,28.6,28.6,29.15,North,8,0.0,0.0,100,-99.99,,,-99.99,WSDL version 423,2013-03-01 11:46:00,
2013-03-01 06:51:00,28.8,28.8,29.15,NNW,344,0.0,2.2,100,-99.99,,,-99.99,WSDL version 423,2013-03-01 11:51:00,
2013-03-01 06:56:00,28.9,28.9,29.15,North,350,0.2,2.2,100,-99.99,,,-99.99,WSDL version 423,2013-03-01 11:56:00,
2013-03-01 07:01:00,29.0,29.0,29.15,NNW,346,0.3,2.0,100,-99.99,,,-99.99,WSDL version 423,2013-03-01 12:01:00,
2013-03-01 07:06:00,29.2,29.2,29.15,North,8,0.0,2.0,100,-99.99,,,-99.99,WSDL version 423,2013-03-01 12:06:00,
2013-03-01 07:11:00,29.3,29.3,29.15,NW,312,0.3,1.6,100,-99.99,,,-99.99,WSDL version 423,2013-03-01 12:11:00,
2013-03-01 07:16:00,29.5,29.5,29.15,North,360,0.0,1.6,100,-99.99,,,-99.99,WSDL version 423,2013-03-01 12:16:00,
2013-03-01 07:21:00,29.7,29.7,29.15,North,355,0.0,0.0,100,-99.99,,,-99.99,WSDL version 423,2013-03-01 12:21:00,
2013-03-01 07:26:00,30.0,30.0,29.15,North,8,0.0,0.0,100,-99.99,,,-99.99,WSDL version 423,2013-03-01 12:26:00,
2013-03-01 07:31:00,30.2,30.2,29.15,NNE,15,0.0,0.0,100,-99.99,,,-99.99,WSDL version 423,2013-03-01 12:31:00,
2013-03-01 07:36:00,30.5,30.5,29.15,NNE,25,0.0,0.0,100,-99.99,,,-99.99,WSDL version 423,2013-03-01 12:36:00,
2013-03-01 07:41:00,30.9,30.9,29.15,North,3,0.0,0.0,100,-99.99,,,-99.99,WSDL version 423,2013-03-01 12:41:00,
2013-03-01 07:46:00,31.1,31.1,29.15,NNW,348,0.0,1.1,100,-99.99,,,-99.99,WSDL version 423,2013-03-01 12:46:00,
2013-03-01 07:51:00,31.2,31.2,29.15,NNW,335,0.0,1.1,100,-99.99,,,-99.99,WSDL version 423,2013-03-01 12:51:00,
2013-03-01 07:56:00,31.3,31.3,29.15,NNW,340,0.0,1.6,100,-99.99,,,-99.99,WSDL version 423,2013-03-01 12:56:00,
2013-03-01 08:01:00,31.4,31.4,29.15,North,3,0.0,1.6,100,-99.99,,,-99.99,WSDL version 423,2013-03-01 13:01:00,
2013-03-01 08:06:00,31.5,31.5,29.15,North,11,0.1,1.3,100,-99.99,,,-99.99,WSDL version 423,2013-03-01 13:06:00,
2013-03-01 08:11:00,31.9,31.9,29.18,NNW,338,0.0,1.3,100,-99.99,,,-99.99,WSDL version 423,2013-03-01 13:11:00,
2013-03-01 08:16:00,32.4,32.4,29.18,NNW,340,0.0,1.1,100,-99.99,,,-99.99,WSDL version 423,2013-03-01 13:16:00,
2013-03-01 08:21:00,32.6,32.3,29.18,NNW,343,0.3,1.6,98,-99.99,,,-99.99,WSDL version 423,2013-03-01 13:21:00,
2013-03-01 08:26:00,33.0,32.4,29.18,NNW,343,0.0,1.6,98,-99.99,,,-99.99,WSDL version 423,2013-03-01 13:26:00,
2013-03-01 08:31:00,33.4,32.8,29.18,North,355,0.0,0.9,98,-99.99,,,-99.99,WSDL version 423,2013-03-01 13:31:00,
2013-03-01 08:36:00,33.6,32.7,29.18,North,360,0.0,0.0,97,-99.99,,,-99.99,WSDL version 423,2013-03-01 13:36:00,
2013-03-01 08:41:00,33.8,32.6,29.18,NNW,338,0.0,0.0,94,-99.99,,,-99.99,WSDL version 423,2013-03-01 13:41:00,
2013-03-01 08:46:00,34.2,32.7,29.18,NNW,340,0.0,0.9,93,-99.99,,,-99.99,WSDL version 423,2013-03-01 13:46:00,
2013-03-01 08:51:00,34.4,32.2,29.18,NNW,328,0.5,2.5,89,-99.99,,,-99.99,WSDL version 423,2013-03-01 13:51:00,
2013-03-01 08:56:00,34.5,31.2,29.18,NNW,338,0.0,2.5,87,-99.99,,,-99.99,WSDL version 423,2013-03-01 13:56:00,
2013-03-01 09:01:00,34.4,30.2,29.18,North,357,0.0,2.0,83,-99.99,,,-99.99,WSDL version 423,2013-03-01 14:01:00,
2013-03-01 09:06:00,34.4,29.5,29.18,North,352,0.0,1.6,81,-99.99,,,-99.99,WSDL version 423,2013-03-01 14:06:00,
2013-03-01 09:11:00,34.2,28.0,29.18,NNW,343,1.5,3.6,77,-99.99,,,-99.99,WSDL version 423,2013-03-01 14:11:00,
2013-03-01 09:16:00,35.0,29.0,29.18,North,358,0.6,3.6,79,-99.99,,,-99.99,WSDL version 423,2013-03-01 14:16:00,
2013-03-01 09:21:00,35.4,29.1,29.18,NNW,338,1.1,2.5,77,-99.99,,,-99.99,WSDL version 423,2013-03-01 14:21:00,
2013-03-01 09:26:00,36.0,29.2,29.18,North,350,0.9,2.5,76,-99.99,,,-99.99,WSDL version 423,2013-03-01 14:26:00,
2013-03-01 09:31:00,36.3,29.5,29.18,North,353,0.0,2.7,76,-99.99,,,-99.99,WSDL version 423,2013-03-01 14:31:00,
2013-03-01 09:36:00,36.6,29.3,29.18,NNW,338,0.8,2.7,74,-99.99,,,-99.99,WSDL version 423,2013-03-01 14:36:00,
2013-03-01 09:41:00,36.4,28.5,29.18,NNW,348,1.7,2.9,71,-99.99,,,-99.99,WSDL version 423,2013-03-01 14:41:00,
2013-03-01 09:46:00,35.7,26.7,29.18,NNW,343,2.1,3.4,69,-99.99,,,-99.99,WSDL version 423,2013-03-01 14:46:00,
2013-03-01 09:51:00,35.7,27.0,29.18,NNW,345,1.5,3.4,71,-99.99,,,-99.99,WSDL version 423,2013-03-01 14:51:00,
2013-03-01 09:56:00,35.8,26.7,29.18,North,360,1.6,3.4,69,-99.99,,,-99.99,WSDL version 423,2013-03-01 14:56:00,
2013-03-01 10:01:00,35.9,26.9,29.18,NNW,343,2.5,3.4,68,-99.99,,,-99.99,WSDL version 423,2013-03-01 15:01:00,
2013-03-01 10:06:00,36.0,26.5,29.18,North,354,2.4,3.4,67,-99.99,,,-99.99,WSDL version 423,2013-03-01 15:06:00,
2013-03-01 10:11:00,36.1,26.5,29.18,North,357,2.2,3.6,67,-99.99,,,-99.99,WSDL version 423,2013-03-01 15:11:00,
2013-03-01 10:16:00,37.0,27.1,29.18,NNW,330,2.4,4.3,66,-99.99,,,-99.99,WSDL version 423,2013-03-01 15:16:00,
2013-03-01 10:21:00,37.3,26.1,29.18,North,354,2.4,4.3,63,-99.99,,,-99.99,WSDL version 423,2013-03-01 15:21:00,
2013-03-01 10:26:00,38.0,26.5,29.18,North,3,1.9,4.0,64,-99.99,,,-99.99,WSDL version 423,2013-03-01 15:26:00,
2013-03-01 10:31:00,38.8,27.0,29.18,North,354,1.7,4.0,62,-99.99,,,-99.99,WSDL version 423,2013-03-01 15:31:00,
2013-03-01 10:36:00,38.5,25.7,29.18,North,350,2.5,4.9,59,-99.99,,,-99.99,WSDL version 423,2013-03-01 15:36:00,
2013-03-01 10:41:00,38.6,26.0,29.18,NNW,343,1.4,4.9,61,-99.99,,,-99.99,WSDL version 423,2013-03-01 15:41:00,
2013-03-01 10:46:00,38.2,25.4,29.18,North,352,1.6,3.8,59,-99.99,,,-99.99,WSDL version 423,2013-03-01 15:46:00,
2013-03-01 10:51:00,37.2,24.4,29.18,North,3,2.5,3.8,60,-99.99,,,-99.99,WSDL version 423,2013-03-01 15:51:00,
2013-03-01 10:56:00,36.8,24.8,29.18,North,349,3.0,4.3,61,-99.99,,,-99.99,WSDL version 423,2013-03-01 15:56:00,
2013-03-01 11:01:00,36.7,24.5,29.18,NNW,348,3.1,4.7,61,-99.99,,,-99.99,WSDL version 423,2013-03-01 16:01:00,
2013-03-01 11:06:00,37.3,25.2,29.18,North,352,2.5,4.7,62,-99.99,,,-99.99,WSDL version 423,2013-03-01 16:06:00,
2013-03-01 11:11:00,37.8,26.2,29.18,NNW,335,1.8,3.8,63,-99.99,,,-99.99,WSDL version 423,2013-03-01 16:11:00,
2013-03-01 11:16:00,38.0,26.3,29.18,North,350,1.5,3.8,62,-99.99,,,-99.99,WSDL version 423,2013-03-01 16:16:00,
2013-03-01 11:21:00,37.9,25.9,29.18,North,352,2.2,3.1,62,-99.99,,,-99.99,WSDL version 423,2013-03-01 16:21:00,
2013-03-01 11:26:00,41.1,29.1,29.18,NNE,20,1.4,3.1,61,-99.99,,,-99.99,WSDL version 423,2013-03-01 16:26:00,
2013-03-01 11:31:00,44.1,31.2,29.18,NNW,340,0.0,2.7,60,-99.99,,,-99.99,WSDL version 423,2013-03-01 16:31:00,
2013-03-01 11:36:00,45.6,31.1,29.18,North,358,1.0,3.1,53,-99.99,,,-99.99,WSDL version 423,2013-03-01 16:36:00,
2013-03-01 11:41:00,44.9,27.7,29.18,SSW,195,0.0,3.1,51,-99.99,,,-99.99,WSDL version 423,2013-03-01 16:41:00,
2013-03-01 11:46:00,44.0,26.3,29.18,NNW,338,2.7,4.3,48,-99.99,,,-99.99,WSDL version 423,2013-03-01 16:46:00,
2013-03-01 11:51:00,42.9,24.3,29.18,North,360,2.5,4.5,48,-99.99,,,-99.99,WSDL version 423,2013-03-01 16:51:00,
2013-03-01 11:56:00,42.0,24.0,29.21,NNW,332,2.7,5.6,49,-99.99,,,-99.99,WSDL version 423,2013-03-01 16:56:00,
2013-03-01 12:01:00,40.6,23.0,29.21,North,5,2.4,5.6,50,-99.99,,,-99.99,WSDL version 423,2013-03-01 17:01:00,
2013-03-01 12:06:00,39.9,23.0,29.21,North,352,3.6,5.4,50,-99.99,,,-99.99,WSDL version 423,2013-03-01 17:06:00,
2013-03-01 12:11:00,38.9,22.2,29.21,NNW,348,3.7,5.4,51,-99.99,,,-99.99,WSDL version 423,2013-03-01 17:11:00,
2013-03-01 12:16:00,38.2,22.4,29.21,NE,48,1.8,5.4,54,-99.99,,,-99.99,WSDL version 423,2013-03-01 17:16:00,
2013-03-01 12:21:00,37.6,23.3,29.21,NNE,28,2.7,4.3,58,-99.99,,,-99.99,WSDL version 423,2013-03-01 17:21:00,
2013-03-01 12:26:00,37.1,24.2,29.21,NNE,15,1.9,4.0,60,-99.99,,,-99.99,WSDL version 423,2013-03-01 17:26:00,
2013-03-01 12:31:00,36.9,25.0,29.21,NE,37,1.3,4.0,63,-99.99,,,-99.99,WSDL version 423,2013-03-01 17:31:00,
2013-03-01 12:36:00,37.0,25.6,29.21,ENE,68,0.9,4.3,64,-99.99,,,-99.99,WSDL version 423,2013-03-01 17:36:00,
2013-03-01 12:41:00,37.0,26.2,29.18,NNW,338,1.2,4.3,65,-99.99,,,-99.99,WSDL version 423,2013-03-01 17:41:00,
2013-03-01 12:46:00,37.3,26.7,29.18,NNW,348,1.1,4.0,65,-99.99,,,-99.99,WSDL version 423,2013-03-01 17:46:00,
2013-03-01 12:51:00,37.6,27.2,29.18,NW,315,0.0,3.1,66,-99.99,,,-99.99,WSDL version 423,2013-03-01 17:51:00,
2013-03-01 12:56:00,37.9,27.9,29.18,ENE,68,0.0,0.0,67,-99.99,,,-99.99,WSDL version 423,2013-03-01 17:56:00,
2013-03-01 13:01:00,37.7,27.4,29.18,North,8,0.0,0.0,66,-99.99,,,-99.99,WSDL version 423,2013-03-01 18:01:00,
2013-03-01 13:06:00,37.5,27.5,29.18,East,84,0.1,2.5,67,-99.99,,,-99.99,WSDL version 423,2013-03-01 18:06:00,
2013-03-01 13:11:00,37.6,27.8,29.18,NNW,338,0.0,2.5,68,-99.99,,,-99.99,WSDL version 423,2013-03-01 18:11:00,
2013-03-01 13:16:00,38.1,28.6,29.18,NNE,17,0.0,0.0,68,-99.99,,,-99.99,WSDL version 423,2013-03-01 18:16:00,
2013-03-01 13:21:00,38.4,28.9,29.18,NNE,25,0.0,0.0,69,-99.99,,,-99.99,WSDL version 423,2013-03-01 18:21:00,
2013-03-01 13:26:00,38.3,28.8,29.21,ENE,68,0.0,0.0,69,-99.99,,,-99.99,WSDL version 423,2013-03-01 18:26:00,
2013-03-01 13:31:00,38.8,30.0,29.21,ESE,113,0.0,0.0,71,-99.99,,,-99.99,WSDL version 423,2013-03-01 18:31:00,
2013-03-01 13:36:00,38.7,29.8,29.21,ESE,113,0.0,0.0,70,-99.99,,,-99.99,WSDL version 423,2013-03-01 18:36:00,
2013-03-01 13:41:00,38.7,29.9,29.21,ESE,113,0.0,0.0,71,-99.99,,,-99.99,WSDL version 423,2013-03-01 18:41:00,
2013-03-01 13:46:00,38.7,30.1,29.21,ESE,113,0.0,0.0,71,-99.99,,,-99.99,WSDL version 423,2013-03-01 18:46:00,
2013-03-01 13:51:00,39.0,30.3,29.21,North,360,0.0,0.0,71,-99.99,,,-99.99,WSDL version 423,2013-03-01 18:51:00,
2013-03-01 13:56:00,39.0,30.0,29.21,NNW,338,0.2,1.3,70,-99.99,,,-99.99,WSDL version 423,2013-03-01 18:56:00,
2013-03-01 14:01:00,38.9,29.9,29.21,North,8,0.0,1.6,70,-99.99,,,-99.99,WSDL version 423,2013-03-01 19:01:00,
2013-03-01 14:06:00,38.9,30.3,29.21,NNW,344,0.0,1.6,71,-99.99,,,-99.99,WSDL version 423,2013-03-01 19:06:00,
2013-03-01 14:11:00,39.0,30.4,29.21,NNW,346,0.0,0.9,70,-99.99,,,-99.99,WSDL version 423,2013-03-01 19:11:00,
2013-03-01 14:16:00,39.1,30.4,29.21,NW,315,0.0,0.9,71,-99.99,,,-99.99,WSDL version 423,2013-03-01 19:16:00,
2013-03-01 14:21:00,39.5,30.7,29.21,NNE,20,0.0,2.7,70,-99.99,,,-99.99,WSDL version 423,2013-03-01 19:21:00,
2013-03-01 14:26:00,39.0,29.9,29.21,North,360,0.0,2.7,69,-99.99,,,-99.99,WSDL version 423,2013-03-01 19:26:00,
2013-03-01 14:31:00,38.8,29.8,29.21,North,349,0.0,1.6,70,-99.99,,,-99.99,WSDL version 423,2013-03-01 19:31:00,
2013-03-01 14:36:00,39.3,30.7,29.21,NNW,333,0.0,0.0,71,-99.99,,,-99.99,WSDL version 423,2013-03-01 19:36:00,
2013-03-01 14:41:00,39.6,30.5,29.21,North,349,0.0,0.0,70,-99.99,,,-99.99,WSDL version 423,2013-03-01 19:41:00,
2013-03-01 14:46:00,39.9,31.0,29.21,North,360,0.0,0.0,71,-99.99,,,-99.99,WSDL version 423,2013-03-01 19:46:00,
2013-03-01 14:51:00,40.4,31.5,29.21,NNW,335,0.2,2.2,70,-99.99,,,-99.99,WSDL version 423,2013-03-01 19:51:00,
2013-03-01 14:56:00,40.3,30.6,29.21,NNW,338,0.0,2.2,68,-99.99,,,-99.99,WSDL version 423,2013-03-01 19:56:00,
2013-03-01 15:01:00,39.9,30.0,29.21,NNW,344,0.2,2.5,67,-99.99,,,-99.99,WSDL version 423,2013-03-01 20:01:00,
2013-03-01 15:06:00,39.1,28.7,29.21,NNW,345,1.7,4.3,66,-99.99,,,-99.99,WSDL version 423,2013-03-01 20:06:00,
2013-03-01 15:11:00,38.6,28.4,29.21,North,354,0.2,4.3,67,-99.99,,,-99.99,WSDL version 423,2013-03-01 20:11:00,
2013-03-01 15:16:00,38.2,28.5,29.21,North,6,1.6,3.4,68,-99.99,,,-99.99,WSDL version 423,2013-03-01 20:16:00,
2013-03-01 15:21:00,38.1,29.0,29.21,North,360,0.0,3.4,70,-99.99,,,-99.99,WSDL version 423,2013-03-01 20:21:00,
2013-03-01 15:26:00,38.4,29.6,29.21,North,357,0.0,1.6,71,-99.99,,,-99.99,WSDL version 423,2013-03-01 20:26:00,
2013-03-01 15:31:00,38.2,29.5,29.21,North,358,1.1,2.7,70,-99.99,,,-99.99,WSDL version 423,2013-03-01 20:31:00,
2013-03-01 15:36:00,37.4,28.6,29.21,NNW,338,1.7,3.4,70,-99.99,,,-99.99,WSDL version 423,2013-03-01 20:36:00,
2013-03-01 15:41:00,37.7,28.8,29.21,North,360,0.0,3.4,70,-99.99,,,-99.99,WSDL version 423,2013-03-01 20:41:00,
2013-03-01 15:46:00,38.2,29.6,29.21,NNE,28,0.0,2.0,70,-99.99,,,-99.99,WSDL version 423,2013-03-01 20:46:00,
2013-03-01 15:51:00,38.4,29.5,29.21,NNE,23,0.0,0.0,70,-99.99,,,-99.99,WSDL version 423,2013-03-01 20:51:00,
2013-03-01 15:56:00,38.4,29.2,29.21,West,280,0.0,0.0,69,-99.99,,,-99.99,WSDL version 423,2013-03-01 20:56:00,
2013-03-01 16:01:00,38.1,28.9,29.21,West,270,0.0,0.0,69,-99.99,,,-99.99,WSDL version 423,2013-03-01 21:01:00,
2013-03-01 16:06:00,37.9,29.0,29.21,North,360,0.0,0.0,70,-99.99,,,-99.99,WSDL version 423,2013-03-01 21:06:00,
2013-03-01 16:11:00,37.4,28.1,29.21,NNW,338,0.0,0.0,70,-99.99,,,-99.99,WSDL version 423,2013-03-01 21:11:00,
2013-03-01 16:16:00,37.0,28.2,29.21,NW,315,0.0,0.0,70,-99.99,,,-99.99,WSDL version 423,2013-03-01 21:16:00,
2013-03-01 16:21:00,36.9,28.1,29.21,NNW,330,0.0,0.0,70,-99.99,,,-99.99,WSDL version 423,2013-03-01 21:21:00,
2013-03-01 16:26:00,36.7,27.9,29.21,NNW,338,0.0,0.0,71,-99.99,,,-99.99,WSDL version 423,2013-03-01 21:26:00,
2013-03-01 16:31:00,36.5,28.0,29.21,East,93,0.0,0.0,71,-99.99,,,-99.99,WSDL version 423,2013-03-01 21:31:00,
2013-03-01 16:36:00,36.5,28.2,29.21,ENE,65,0.0,0.0,72,-99.99,,,-99.99,WSDL version 423,2013-03-01 21:36:00,
2013-03-01 16:41:00,36.2,28.1,29.21,ENE,70,0.0,0.0,72,-99.99,,,-99.99,WSDL version 423,2013-03-01 21:41:00,
2013-03-01 16:46:00,35.9,28.0,29.21,ESE,107,0.0,0.0,73,-99.99,,,-99.99,WSDL version 423,2013-03-01 21:46:00,
2013-03-01 16:51:00,35.7,28.1,29.21,South,180,0.0,0.0,74,-99.99,,,-99.99,WSDL version 423,2013-03-01 21:51:00,
2013-03-01 16:56:00,35.6,28.3,29.21,South,180,0.0,0.0,75,-99.99,,,-99.99,WSDL version 423,2013-03-01 21:56:00,
2013-03-01 17:01:00,35.5,28.5,29.21,SSE,158,0.0,0.0,76,-99.99,,,-99.99,WSDL version 423,2013-03-01 22:01:00,
2013-03-01 17:06:00,35.2,28.4,29.21,SSE,158,0.0,0.0,76,-99.99,,,-99.99,WSDL version 423,2013-03-01 22:06:00,
2013-03-01 17:11:00,34.9,28.2,29.21,SSE,158,0.0,0.0,77,-99.99,,,-99.99,WSDL version 423,2013-03-01 22:11:00,
2013-03-01 17:16:00,34.6,28.2,29.21,SSE,158,0.0,0.0,78,-99.99,,,-99.99,WSDL version 423,2013-03-01 22:16:00,
2013-03-01 17:21:00,34.4,28.3,29.21,SSE,158,0.0,0.0,78,-99.99,,,-99.99,WSDL version 423,2013-03-01 22:21:00,
2013-03-01 17:26:00,34.2,28.2,29.23,SSE,158,0.0,0.0,79,-99.99,,,-99.99,WSDL version 423,2013-03-01 22:26:00,
2013-03-01 17:31:00,33.9,28.1,29.23,SSE,158,0.0,0.0,79,-99.99,,,-99.99,WSDL version 423,2013-03-01 22:31:00,
2013-03-01 17:36:00,33.6,27.8,29.23,SSE,158,0.0,0.0,79,-99.99,,,-99.99,WSDL version 423,2013-03-01 22:36:00,
2013-03-01 17:41:00,33.3,27.6,29.23,SSE,158,0.0,0.0,80,-99.99,,,-99.99,WSDL version 423,2013-03-01 22:41:00,
2013-03-01 17:46:00,33.0,27.5,29.23,West,262,0.0,0.0,80,-99.99,,,-99.99,WSDL version 423,2013-03-01 22:46:00,
2013-03-01 17:51:00,32.8,27.6,29.23,East,100,0.0,0.0,81,-99.99,,,-99.99,WSDL version 423,2013-03-01 22:51:00,
2013-03-01 17:56:00,32.6,27.5,29.23,ENE,68,0.0,0.0,81,-99.99,,,-99.99,WSDL version 423,2013-03-01 22:56:00,
2013-03-01 18:01:00,32.4,27.6,29.23,North,3,0.0,0.0,82,-99.99,,,-99.99,WSDL version 423,2013-03-01 23:01:00,
2013-03-01 18:06:00,32.2,27.6,29.23,North,360,0.0,0.0,83,-99.99,,,-99.99,WSDL version 423,2013-03-01 23:06:00,
2013-03-01 18:11:00,32.1,28.2,29.23,North,360,0.0,0.0,86,-99.99,,,-99.99,WSDL version 423,2013-03-01 23:11:00,
2013-03-01 18:16:00,32.0,28.6,29.23,North,360,0.0,0.0,86,-99.99,,,-99.99,WSDL version 423,2013-03-01 23:16:00,
2013-03-01 18:21:00,31.8,28.7,29.23,North,360,0.0,0.0,87,-99.99,,,-99.99,WSDL version 423,2013-03-01 23:21:00,
2013-03-01 18:26:00,31.6,28.5,29.23,North,360,0.0,0.0,87,-99.99,,,-99.99,WSDL version 423,2013-03-01 23:26:00,
2013-03-01 18:31:00,31.5,28.5,29.23,North,360,0.0,0.0,88,-99.99,,,-99.99,WSDL version 423,2013-03-01 23:31:00,
2013-03-01 18:36:00,31.5,28.6,29.23,North,360,0.0,0.0,88,-99.99,,,-99.99,WSDL version 423,2013-03-01 23:36:00,
2013-03-01 18:41:00,31.5,28.9,29.23,North,360,0.0,0.0,89,-99.99,,,-99.99,WSDL version 423,2013-03-01 23:41:00,
2013-03-01 18:46:00,31.4,28.8,29.23,North,360,0.0,0.0,89,-99.99,,,-99.99,WSDL version 423,2013-03-01 23:46:00,
2013-03-01 18:51:00,31.3,28.9,29.23,North,360,0.0,0.0,90,-99.99,,,-99.99,WSDL version 423,2013-03-01 23:51:00,
2013-03-01 18:56:00,31.2,28.9,29.23,North,360,0.0,0.0,90,-99.99,,,-99.99,WSDL version 423,2013-03-01 23:56:00,
2013-03-01 19:01:00,31.1,28.8,29.23,North,360,0.0,0.0,90,-99.99,,,-99.99,WSDL version 423,2013-03-02 00:01:00,
2013-03-01 19:11:00,30.9,28.8,29.23,North,360,0.0,0.0,91,-99.99,,,-99.99,WSDL version 423,2013-03-02 00:11:00,
2013-03-01 19:16:00,30.9,28.9,29.23,North,360,0.0,0.0,91,-99.99,,,-99.99,WSDL version 423,2013-03-02 00:16:00,
2013-03-01 19:21:00,30.9,28.9,29.23,North,360,0.0,0.0,91,-99.99,,,-99.99,WSDL version 423,2013-03-02 00:21:00,
2013-03-01 19:26:00,30.8,28.8,29.23,North,360,0.0,0.0,91,-99.99,,,-99.99,WSDL version 423,2013-03-02 00:26:00,
2013-03-01 19:36:00,30.7,29.0,29.23,North,3,0.0,0.0,92,-99.99,,,-99.99,WSDL version 423,2013-03-02 00:36:00,
2013-03-01 19:41:00,30.7,29.0,29.23,SSE,158,0.0,0.0,92,-99.99,,,-99.99,WSDL version 423,2013-03-02 00:41:00,
2013-03-01 19:46:00,30.7,29.0,29.23,NW,315,0.0,0.0,92,-99.99,,,-99.99,WSDL version 423,2013-03-02 00:46:00,
2013-03-01 19:51:00,30.7,29.1,29.23,NW,315,0.0,0.0,93,-99.99,,,-99.99,WSDL version 423,2013-03-02 00:51:00,
2013-03-01 19:56:00,30.7,29.4,29.23,NW,315,0.0,0.0,94,-99.99,,,-99.99,WSDL version 423,2013-03-02 00:56:00,
2013-03-01 20:01:00,30.6,29.4,29.23,WNW,303,0.0,0.0,94,-99.99,,,-99.99,WSDL version 423,2013-03-02 01:01:00,
2013-03-01 20:06:00,30.6,29.3,29.23,ESE,113,0.0,0.0,94,-99.99,,,-99.99,WSDL version 423,2013-03-02 01:06:00,
2013-03-01 20:11:00,30.6,29.3,29.23,SE,130,0.0,0.0,94,-99.99,,,-99.99,WSDL version 423,2013-03-02 01:11:00,
2013-03-01 20:16:00,30.6,29.4,29.23,SSE,160,0.0,0.0,96,-99.99,,,-99.99,WSDL version 423,2013-03-02 01:16:00,
2013-03-01 20:21:00,30.6,29.6,29.23,SSE,158,0.0,0.0,96,-99.99,,,-99.99,WSDL version 423,2013-03-02 01:21:00,
2013-03-01 20:26:00,30.6,29.6,29.23,SSE,158,0.0,0.0,96,-99.99,,,-99.99,WSDL version 423,2013-03-02 01:26:00,
2013-03-01 20:31:00,30.6,29.8,29.23,ESE,113,0.0,0.0,97,-99.99,,,-99.99,WSDL version 423,2013-03-02 01:31:00,
2013-03-01 20:36:00,30.6,29.8,29.23,ESE,113,0.0,0.0,97,-99.99,,,-99.99,WSDL version 423,2013-03-02 01:36:00,
2013-03-01 20:41:00,30.6,29.8,29.23,ESE,107,0.0,0.0,97,-99.99,,,-99.99,WSDL version 423,2013-03-02 01:41:00,
2013-03-01 20:46:00,30.6,29.8,29.23,East,90,0.0,0.0,97,-99.99,,,-99.99,WSDL version 423,2013-03-02 01:46:00,
2013-03-01 20:51:00,30.6,29.8,29.23,ENE,76,0.0,0.0,97,-99.99,,,-99.99,WSDL version 423,2013-03-02 01:51:00,
2013-03-01 20:56:00,30.6,29.8,29.23,East,84,0.0,0.0,97,-99.99,,,-99.99,WSDL version 423,2013-03-02 01:56:00,
2013-03-01 21:01:00,30.6,29.8,29.23,NNE,23,0.0,0.0,97,-99.99,,,-99.99,WSDL version 423,2013-03-02 02:01:00,
2013-03-01 21:06:00,30.6,29.8,29.23,North,354,0.0,0.0,97,-99.99,,,-99.99,WSDL version 423,2013-03-02 02:06:00,
2013-03-01 21:11:00,30.6,29.8,29.23,North,350,0.0,0.0,97,-99.99,,,-99.99,WSDL version 423,2013-03-02 02:11:00,
2013-03-01 21:16:00,30.6,29.8,29.23,ENE,70,0.0,0.0,97,-99.99,,,-99.99,WSDL version 423,2013-03-02 02:16:00,
2013-03-01 21:21:00,30.6,29.9,29.23,NNW,338,0.0,0.0,98,-99.99,,,-99.99,WSDL version 423,2013-03-02 02:21:00,
2013-03-01 21:26:00,30.7,30.2,29.23,NE,56,0.0,0.0,98,-99.99,,,-99.99,WSDL version 423,2013-03-02 02:26:00,
2013-03-01 21:31:00,30.7,30.3,29.23,NNE,23,0.0,0.0,98,-99.99,,,-99.99,WSDL version 423,2013-03-02 02:31:00,
2013-03-01 21:36:00,30.6,30.1,29.23,North,5,0.0,0.0,98,-99.99,,,-99.99,WSDL version 423,2013-03-02 02:36:00,
2013-03-01 21:41:00,30.6,30.1,29.23,NNE,15,0.0,1.3,98,-99.99,,,-99.99,WSDL version 423,2013-03-02 02:41:00,
2013-03-01 21:46:00,30.6,30.1,29.23,North,3,0.0,1.3,98,-99.99,,,-99.99,WSDL version 423,2013-03-02 02:46:00,
2013-03-01 21:51:00,30.6,30.1,29.23,North,357,0.0,0.0,98,-99.99,,,-99.99,WSDL version 423,2013-03-02 02:51:00,
2013-03-01 21:56:00,30.6,30.1,29.23,North,355,0.0,1.1,98,-99.99,,,-99.99,WSDL version 423,2013-03-02 02:56:00,
2013-03-01 22:01:00,30.6,30.3,29.23,North,11,0.0,1.1,99,-99.99,,,-99.99,WSDL version 423,2013-03-02 03:01:00,
2013-03-01 22:06:00,30.6,30.3,29.23,NNE,13,0.0,0.9,99,-99.99,,,-99.99,WSDL version 423,2013-03-02 03:06:00,
2013-03-01 22:11:00,30.6,30.4,29.23,NNW,340,0.8,2.0,99,-99.99,,,-99.99,WSDL version 423,2013-03-02 03:11:00,
2013-03-01 22:16:00,30.6,30.6,29.23,NNE,20,0.0,2.0,100,-99.99,,,-99.99,WSDL version 423,2013-03-02 03:16:00,
2013-03-01 22:21:00,30.4,30.4,29.23,NNW,338,0.4,2.0,100,-99.99,,,-99.99,WSDL version 423,2013-03-02 03:21:00,
2013-03-01 22:26:00,30.3,30.3,29.23,North,354,0.0,2.0,100,-99.99,,,-99.99,WSDL version 423,2013-03-02 03:26:00,
2013-03-01 22:31:00,30.2,30.2,29.23,NNW,348,0.0,0.0,100,-99.99,,,-99.99,WSDL version 423,2013-03-02 03:31:00,
2013-03-01 22:36:00,29.9,29.8,29.23,NE,39,0.0,0.0,99,-99.99,,,-99.99,WSDL version 423,2013-03-02 03:36:00,
2013-03-01 22:41:00,29.8,29.5,29.23,North,360,0.0,0.0,99,-99.99,,,-99.99,WSDL version 423,2013-03-02 03:41:00,
2013-03-01 22:46:00,29.6,29.2,29.23,NNW,338,0.0,0.0,98,-99.99,,,-99.99,WSDL version 423,2013-03-02 03:46:00,
2013-03-01 22:51:00,29.5,29.0,29.23,ENE,62,0.0,0.0,98,-99.99,,,-99.99,WSDL version 423,2013-03-02 03:51:00,
2013-03-01 22:56:00,29.5,29.0,29.23,NNW,345,0.0,0.0,98,-99.99,,,-99.99,WSDL version 423,2013-03-02 03:56:00,
2013-03-01 23:01:00,29.5,29.0,29.23,North,3,0.0,2.0,98,-99.99,,,-99.99,WSDL version 423,2013-03-02 04:01:00,
2013-03-01 23:06:00,29.5,29.0,29.23,North,360,0.0,2.0,98,-99.99,,,-99.99,WSDL version 423,2013-03-02 04:06:00,
2013-03-01 23:11:00,29.5,29.0,29.23,North,360,0.0,0.0,98,-99.99,,,-99.99,WSDL version 423,2013-03-02 04:11:00,
2013-03-01 23:16:00,29.5,29.0,29.23,NNW,343,0.0,0.0,98,-99.99,,,-99.99,WSDL version 423,2013-03-02 04:16:00,
2013-03-01 23:21:00,29.5,29.0,29.23,North,360,0.0,2.0,98,-99.99,,,-99.99,WSDL version 423,2013-03-02 04:21:00,
2013-03-01 23:26:00,29.5,29.0,29.23,NNW,335,0.0,2.7,98,-99.99,,,-99.99,WSDL version 423,2013-03-02 04:26:00,
2013-03-01 23:31:00,29.5,29.0,29.23,NNW,338,0.0,2.7,97,-99.99,,,-99.99,WSDL version 423,2013-03-02 04:31:00,
2013-03-01 23:36:00,29.5,28.7,29.23,NE,53,0.0,0.0,97,-99.99,,,-99.99,WSDL version 423,2013-03-02 04:36:00,
2013-03-01 23:41:00,29.5,28.7,29.23,SE,133,0.0,0.0,97,-99.99,,,-99.99,WSDL version 423,2013-03-02 04:41:00,
2013-03-01 23:46:00,29.5,28.7,29.23,East,79,0.0,0.0,96,-99.99,,,-99.99,WSDL version 423,2013-03-02 04:46:00,
2013-03-01 23:51:00,29.4,28.4,29.23,NE,50,0.0,0.9,96,-99.99,,,-99.99,WSDL version 423,2013-03-02 04:51:00,
2013-03-01 23:56:00,29.5,28.5,29.23,NNE,23,0.0,0.9,96,-99.99,,,-99.99,WSDL version 423,2013-03-02 04:56:00,